Flight Track Log - Related Links

Times and Time Zones

All times are in EDT time to prevent confusion due to time zone crossing. See the UAL5911 flight status page for this flight to view local times or setup timezone preferences in your user account.

Time Position Orientation Groundspeed Altitude Reporting Facility
EDT Latitude Longitude Course Direction KTS MPH feet Rate Location/Type
Mon 02:28:43 PM 41.9167 -87.9500 270° West 194 223 4,000  Level Chicago TRACON
Mon 02:29:43 PM 41.8667 -88.0167 225° Southwest 255 293 5,900 1,842 Climbing Chicago TRACON
Mon 02:30:24 PM 41.8386 -88.0469 219° Southwest 248 285 7,100 2,505 Climbing Chicago Center
Mon 02:31:00 PM 41.9667 -88.3577 270° West  Level FlightAware
Mon 02:31:26 PM 41.8058 -88.1483 247° West 277 319 10,200  Level Chicago Center
Mon 02:32:00 PM 41.9667 -88.4721 270° West  Level FlightAware
Mon 02:32:28 PM 41.8058 -88.2497 270° West 273 314 12,000  Level Chicago Center
Mon 02:33:00 PM 41.9667 -88.5865 270° West  Level FlightAware
Mon 02:33:30 PM 41.8050 -88.3658 269° West 305 351 13,100  Level Chicago Center
Mon 02:34:00 PM 41.9667 -88.6913 270° West  Level FlightAware
Mon 02:34:32 PM 41.8025 -88.4889 268° West 330 380 14,400  Level Chicago Center
Mon 02:35:34 PM 41.8003 -88.6144 269° West 338 389 15,800 726 Climbing Chicago Center
Mon 02:36:36 PM 41.7983 -88.7731 269° West 356 410 15,900 48 Climbing Chicago Center
Mon 02:37:38 PM 41.7572 -88.8975 246° West 372 428 15,900  Level Chicago Center
Mon 02:38:40 PM 41.7028 -89.0125 238° Southwest 370 426 15,900  Level Chicago Center
Mon 02:39:42 PM 41.6497 -89.1281 238° Southwest 368 423 15,900  Level Chicago Center
Mon 02:40:44 PM 41.5975 -89.2422 239° Southwest 365 420 15,900  Level Chicago Center
Mon 02:41:46 PM 41.5014 -89.3039 206° Southwest 356 410 15,900  Level Chicago Center
Mon 02:42:48 PM 41.4050 -89.3506 200° South 365 420 15,900 -532 Level Chicago Center
Mon 02:43:50 PM 41.3100 -89.3947 199° South 363 418 14,800 -1,597 Descending Chicago Center
Mon 02:44:52 PM 41.2028 -89.4444 199° South 343 395 12,600 -1,839 Descending Chicago Center
Mon 02:45:54 PM 41.1172 -89.4833 199° South 327 376 11,000 -1,306 Descending Chicago Center
Mon 02:46:56 PM 41.0406 -89.5183 199° South 301 346 9,900 -1,452 Descending Chicago Center
Mon 02:47:58 PM 40.9806 -89.5700 213° Southwest 268 308 8,000 -1,839 Descending Chicago Center
Mon 02:49:00 PM 40.9292 -89.6319 222° Southwest 255 293 6,100 -1,742 Descending Chicago Center
Mon 02:50:02 PM 40.8772 -89.6953 223° Southwest 255 293 4,400 -1,500 Descending Chicago Center
Mon 02:51:04 PM 40.8344 -89.7825 237° Southwest 244 281 3,000 -677 Descending Chicago Center
Mon 02:52:06 PM 40.8019 -89.8469 236° Southwest 228 262 3,000  Level Chicago Center
Mon 02:53:08 PM 40.7531 -89.8467 180° South 209 241 3,000 -339 Level Chicago Center
Mon 02:54:10 PM 40.7211 -89.7961 130° Southeast 187 215 2,300 -726 Descending Chicago Center
Mon 02:55:12 PM 40.6981 -89.7567 128° Southeast 157 181 1,500 -726 Descending Chicago Center
Mon 02:56:14 PM 40.6769 -89.7192 127° Southeast 140 161 800 -387 Descending Chicago Center
Mon 02:57:16 PM 40.6553 -89.6831 128° Southeast 137 158 700 -97 Descending Chicago Center

Login

Don't have an account? Register now (free) for customized features, flight alerts, and more!